createdAt,value
2022-12-05T00:02:25.405Z,98985.53
2022-12-05T00:07:29.328Z,98980.25
2022-12-05T00:12:33.649Z,98984.72
2022-12-05T00:17:36.558Z,98975.06
2022-12-05T00:22:39.893Z,98984.59
2022-12-05T00:27:44.135Z,98986.88
2022-12-05T00:32:47.077Z,98993.44
2022-12-05T00:37:50.055Z,98999.53
2022-12-05T00:42:54.343Z,98994.66
2022-12-05T00:47:57.331Z,99002.78
2022-12-05T00:53:00.333Z,99007.00
2022-12-05T00:58:04.742Z,99006.09
2022-12-05T01:03:07.734Z,98992.50
2022-12-05T01:08:10.725Z,98996.38
2022-12-05T01:13:15.055Z,99009.13
2022-12-05T01:18:18.157Z,98998.28
2022-12-05T01:23:21.385Z,99006.34
2022-12-05T01:28:25.697Z,98999.63
2022-12-05T01:33:28.590Z,99007.63
2022-12-05T01:38:31.564Z,99006.81
2022-12-05T01:43:54.840Z,99011.06
2022-12-05T01:49:02.862Z,99019.81
2022-12-05T01:54:07.185Z,99020.53
2022-12-05T01:59:12.847Z,99018.91
2022-12-05T02:04:16.071Z,99008.13
2022-12-05T02:09:18.967Z,99013.00
2022-12-05T02:14:32.608Z,99004.44
2022-12-05T02:20:04.619Z,99013.00
2022-12-05T02:25:23.225Z,99022.13
2022-12-05T02:30:28.157Z,99023.03
2022-12-05T02:35:42.365Z,99020.16
2022-12-05T02:40:52.861Z,99016.16
2022-12-05T02:46:02.020Z,99012.72
2022-12-05T02:51:09.637Z,99002.56
2022-12-05T02:56:13.297Z,99000.44
2022-12-05T03:01:18.152Z,99000.38
2022-12-05T03:06:25.336Z,98997.09
2022-12-05T03:11:31.789Z,98998.22
2022-12-05T03:16:40.007Z,99006.78
2022-12-05T03:21:50.885Z,99002.13
2022-12-05T03:27:02.409Z,99002.94
2022-12-05T03:32:11.897Z,98996.19
2022-12-05T03:37:22.800Z,99003.59
2022-12-05T03:42:32.257Z,99020.03
2022-12-05T03:47:44.742Z,99018.19
2022-12-05T03:53:18.700Z,99016.78
2022-12-05T03:58:23.751Z,99015.81
2022-12-05T04:03:39.589Z,99016.78
2022-12-05T04:08:48.269Z,99020.22
2022-12-05T04:13:54.038Z,99017.31
2022-12-05T04:19:03.061Z,99030.44
2022-12-05T04:24:26.581Z,99029.59
2022-12-05T04:29:35.828Z,99028.16
2022-12-05T04:34:43.141Z,99025.56
2022-12-05T04:39:52.277Z,99024.84
2022-12-05T04:44:58.566Z,99036.75
2022-12-05T04:50:05.670Z,99030.13
2022-12-05T04:55:11.536Z,99045.22
2022-12-05T05:00:14.986Z,99044.16
2022-12-05T05:05:21.494Z,99042.66
2022-12-05T05:10:36.615Z,99051.59
2022-12-05T05:15:39.610Z,99048.00
2022-12-05T05:20:43.974Z,99053.84
2022-12-05T05:25:46.840Z,99046.28
2022-12-05T05:30:49.991Z,99052.41
2022-12-05T05:35:54.309Z,99053.66
2022-12-05T05:40:57.159Z,99059.13
2022-12-05T05:46:00.130Z,99073.19
2022-12-05T05:51:06.382Z,99070.69
2022-12-05T05:56:11.346Z,99083.00
2022-12-05T06:01:17.227Z,99074.28
2022-12-05T06:06:21.983Z,99086.31
2022-12-05T06:11:27.302Z,99078.63
2022-12-05T06:16:31.496Z,99086.22
2022-12-05T06:21:35.922Z,99088.91
2022-12-05T06:26:38.846Z,99098.16
2022-12-05T06:31:42.895Z,99105.81
2022-12-05T06:36:47.213Z,99118.44
2022-12-05T06:41:50.134Z,99121.31
2022-12-05T06:46:53.045Z,99137.94
2022-12-05T06:51:57.285Z,99146.19
2022-12-05T06:57:00.153Z,99153.81
2022-12-05T07:02:03.274Z,99145.38
2022-12-05T07:07:07.749Z,99142.84
2022-12-05T07:12:10.831Z,99145.72
2022-12-05T07:17:13.831Z,99154.34
2022-12-05T07:22:18.541Z,99143.47
2022-12-05T07:27:26.811Z,99145.47
2022-12-05T07:32:32.988Z,99152.66
2022-12-05T07:37:37.359Z,99165.66
2022-12-05T07:42:40.265Z,99159.56
2022-12-05T07:47:43.283Z,99167.47
2022-12-05T07:52:47.595Z,99170.31
2022-12-05T07:57:50.510Z,99174.19
2022-12-05T08:02:53.476Z,99183.53
2022-12-05T08:07:57.899Z,99177.69
2022-12-05T08:13:00.889Z,99179.25
2022-12-05T08:18:03.788Z,99189.91
2022-12-05T08:23:08.052Z,99184.31
2022-12-05T08:28:10.962Z,99193.81
2022-12-05T08:33:13.906Z,99195.63
2022-12-05T08:38:18.176Z,99199.34
2022-12-05T08:43:21.057Z,99191.16
2022-12-05T08:48:28.947Z,99188.53
2022-12-05T08:53:33.947Z,99194.09
2022-12-05T08:58:37.047Z,99197.00
2022-12-05T09:03:46.042Z,99208.84
2022-12-05T09:08:55.178Z,99215.75
2022-12-05T09:13:59.863Z,99218.50
2022-12-05T09:19:03.154Z,99229.47
2022-12-05T09:24:07.606Z,99241.06
2022-12-05T09:29:16.298Z,99252.34
2022-12-05T09:34:20.237Z,99249.72
2022-12-05T09:39:25.831Z,99234.34
2022-12-05T09:44:42.230Z,99237.66
2022-12-05T09:49:51.184Z,99238.31
2022-12-05T09:54:56.819Z,99242.06
2022-12-05T10:00:02.022Z,99238.66
2022-12-05T10:05:29.052Z,99248.34
2022-12-05T10:10:44.642Z,99247.00
2022-12-05T10:15:56.829Z,99253.38
2022-12-05T10:21:04.735Z,99252.81
2022-12-05T10:26:13.714Z,99253.63
2022-12-05T10:31:20.239Z,99243.06
2022-12-05T10:36:26.488Z,99234.25
2022-12-05T10:41:30.844Z,99233.72
2022-12-05T10:46:33.926Z,99228.50
2022-12-05T10:51:37.866Z,99228.97
2022-12-05T10:56:44.909Z,99231.22
2022-12-05T11:01:50.986Z,99233.28
2022-12-05T11:06:58.314Z,99225.72
2022-12-05T11:12:20.351Z,99226.53
2022-12-05T11:17:26.630Z,99238.13
2022-12-05T11:22:34.625Z,99224.81
2022-12-05T11:27:38.847Z,99224.19
2022-12-05T11:32:41.842Z,99218.34
2022-12-05T11:37:47.406Z,99226.72
2022-12-05T11:43:12.428Z,99224.44
2022-12-05T11:48:36.822Z,99234.28
2022-12-05T11:54:16.110Z,99226.91
2022-12-05T11:59:45.097Z,99221.69
2022-12-05T12:04:56.407Z,99229.69
2022-12-05T12:10:11.965Z,99235.69
2022-12-05T12:15:38.546Z,99209.13
2022-12-05T12:20:56.599Z,99221.69
2022-12-05T12:26:08.999Z,99205.63
2022-12-05T12:31:40.640Z,99197.34
2022-12-05T12:36:49.526Z,99201.47
2022-12-05T12:42:25.183Z,99189.19
2022-12-05T12:47:42.371Z,99189.47
2022-12-05T12:52:58.782Z,99192.06
2022-12-05T12:58:12.815Z,99192.69
2022-12-05T13:03:22.805Z,99195.09
2022-12-05T13:08:31.080Z,99197.44
2022-12-05T13:13:37.607Z,99193.41
2022-12-05T13:18:41.873Z,99195.22
2022-12-05T13:23:50.358Z,99209.19
2022-12-05T13:28:56.170Z,99202.56
2022-12-05T13:34:00.550Z,99210.28
2022-12-05T13:39:23.420Z,99219.16
2022-12-05T13:44:34.364Z,99228.78
2022-12-05T13:49:45.548Z,99226.47
2022-12-05T13:54:59.637Z,99233.53
2022-12-05T14:00:06.201Z,99231.13
2022-12-05T14:05:46.278Z,99231.44
2022-12-05T14:11:11.069Z,99216.03
2022-12-05T14:16:47.989Z,99224.19
2022-12-05T14:22:03.722Z,99223.50
2022-12-05T14:27:12.569Z,99223.94
2022-12-05T14:32:26.307Z,99231.84
2022-12-05T14:37:34.762Z,99233.63
2022-12-05T14:42:42.462Z,99226.72
2022-12-05T14:47:52.863Z,99225.00
2022-12-05T14:53:23.375Z,99232.28
2022-12-05T14:58:34.485Z,99236.50
2022-12-05T15:03:41.465Z,99232.91
2022-12-05T15:08:48.995Z,99239.66
2022-12-05T15:13:52.231Z,99237.94
2022-12-05T15:18:59.847Z,99246.28
2022-12-05T15:24:07.453Z,99250.06
2022-12-05T15:29:14.021Z,99246.75
2022-12-05T15:34:23.096Z,99244.25
2022-12-05T15:39:28.682Z,99247.38
2022-12-05T15:44:37.365Z,99253.16
2022-12-05T15:49:41.080Z,99250.84
2022-12-05T15:54:46.362Z,99254.00
2022-12-05T15:59:53.140Z,99256.16
2022-12-05T16:04:59.502Z,99277.06
2022-12-05T16:10:03.835Z,99262.97
2022-12-05T16:15:13.682Z,99271.00
2022-12-05T16:20:25.718Z,99274.91
2022-12-05T16:25:33.759Z,99275.91
2022-12-05T16:30:38.365Z,99268.94
2022-12-05T16:35:43.247Z,99277.00
2022-12-05T16:40:59.185Z,99278.97
2022-12-05T16:46:42.025Z,99278.84
2022-12-05T16:51:47.245Z,99287.59
2022-12-05T16:56:51.653Z,99280.44
2022-12-05T17:01:54.635Z,99276.75
2022-12-05T17:12:05.621Z,99267.09
2022-12-05T17:17:13.614Z,99268.34
2022-12-05T17:22:17.022Z,99277.53
2022-12-05T17:27:22.785Z,99287.88
2022-12-05T17:32:25.737Z,99284.69
2022-12-05T17:37:28.742Z,99276.63
2022-12-05T17:42:33.056Z,99287.47
2022-12-05T17:47:36.133Z,99283.84
2022-12-05T17:52:39.098Z,99284.03
2022-12-05T17:57:43.371Z,99295.44
2022-12-05T18:02:46.954Z,99292.97
2022-12-05T18:07:49.914Z,99295.22
2022-12-05T18:12:54.186Z,99301.41
2022-12-05T18:17:57.031Z,99309.94
2022-12-05T18:23:01.357Z,99303.44
2022-12-05T18:28:05.806Z,99310.78
2022-12-05T18:33:08.696Z,99306.97
2022-12-05T18:38:12.432Z,99308.00
2022-12-05T18:43:16.739Z,99309.41
2022-12-05T18:48:48.252Z,99321.66
2022-12-05T18:53:51.523Z,99327.56
2022-12-05T18:58:57.609Z,99326.41
2022-12-05T19:04:02.435Z,99329.88
2022-12-05T19:09:09.138Z,99341.03
2022-12-05T19:14:13.833Z,99331.19
2022-12-05T19:19:17.499Z,99326.50
2022-12-05T19:24:20.558Z,99335.53
2022-12-05T19:29:24.934Z,99328.03
2022-12-05T19:34:27.996Z,99330.56
2022-12-05T19:39:31.009Z,99324.81
2022-12-05T19:44:35.347Z,99320.78
2022-12-05T19:49:38.291Z,99323.16
2022-12-05T19:54:41.184Z,99322.00
2022-12-05T19:59:45.917Z,99323.34
2022-12-05T20:04:49.157Z,99314.59
2022-12-05T20:09:52.101Z,99325.00
2022-12-05T20:14:57.706Z,99325.28
2022-12-05T20:20:00.929Z,99329.16
2022-12-05T20:25:04.871Z,99329.41
2022-12-05T20:30:10.140Z,99333.16
2022-12-05T20:35:13.104Z,99326.88
2022-12-05T20:40:16.166Z,99319.19
2022-12-05T20:45:20.454Z,99311.81
2022-12-05T20:50:23.458Z,99309.72
2022-12-05T20:55:26.370Z,99304.72
2022-12-05T21:00:30.670Z,99297.25
2022-12-05T21:05:35.683Z,99305.75
2022-12-05T21:10:38.595Z,99301.44
2022-12-05T21:15:43.140Z,99306.84
2022-12-05T21:20:46.174Z,99296.56
2022-12-05T21:25:49.164Z,99310.06
2022-12-05T21:30:53.510Z,99296.19
2022-12-05T21:35:56.619Z,99298.06
2022-12-05T21:40:59.731Z,99294.59
2022-12-05T21:46:04.613Z,99297.78
2022-12-05T21:51:08.870Z,99293.78
2022-12-05T21:56:15.503Z,99287.97
2022-12-05T22:01:21.612Z,99292.38
2022-12-05T22:06:24.566Z,99290.56
2022-12-05T22:11:27.640Z,99292.88
2022-12-05T22:16:33.460Z,99288.16
2022-12-05T22:21:36.747Z,99287.00
2022-12-05T22:26:39.644Z,99294.25
2022-12-05T22:31:43.986Z,99282.47
2022-12-05T22:36:49.363Z,99277.56
2022-12-05T22:41:52.240Z,99269.44
2022-12-05T22:46:56.505Z,99272.84
2022-12-05T22:51:59.416Z,99264.09
2022-12-05T22:57:02.643Z,99267.91
2022-12-05T23:02:06.939Z,99262.28
2022-12-05T23:07:09.887Z,99256.03
2022-12-05T23:12:12.854Z,99242.72
2022-12-05T23:17:17.268Z,99245.75
2022-12-05T23:22:20.252Z,99250.34
2022-12-05T23:27:23.301Z,99228.06
2022-12-05T23:32:27.771Z,99228.91
2022-12-05T23:37:30.754Z,99211.53
2022-12-05T23:42:33.794Z,99213.72
2022-12-05T23:47:38.246Z,99206.91
2022-12-05T23:52:41.300Z,99203.31
2022-12-05T23:57:44.321Z,99212.09
